createdAt,value
2018-06-02T00:01:20.749Z,40.84
2018-06-02T00:03:47.154Z,40.99
2018-06-02T00:06:13.555Z,41.07
2018-06-02T00:08:39.881Z,41.08
2018-06-02T00:11:06.222Z,41.16
2018-06-02T00:13:32.587Z,41.15
2018-06-02T00:15:58.968Z,41.20
2018-06-02T00:18:25.337Z,41.30
2018-06-02T00:20:51.775Z,41.31
2018-06-02T00:23:18.189Z,41.49
2018-06-02T00:25:44.532Z,41.45
2018-06-02T00:28:10.864Z,41.49
2018-06-02T00:30:37.266Z,41.58
2018-06-02T00:33:03.604Z,41.68
2018-06-02T00:35:29.952Z,41.74
2018-06-02T00:37:56.293Z,41.74
2018-06-02T00:40:22.686Z,41.83
2018-06-02T00:42:49.060Z,41.97
2018-06-02T00:45:15.400Z,41.98
2018-06-02T00:47:41.729Z,42.10
2018-06-02T00:50:08.060Z,42.18
2018-06-02T00:52:34.381Z,42.27
2018-06-02T00:55:00.715Z,42.29
2018-06-02T00:57:27.096Z,42.36
2018-06-02T00:59:53.447Z,42.39
2018-06-02T01:02:19.776Z,42.50
2018-06-02T01:04:46.109Z,42.55
2018-06-02T01:07:12.473Z,42.63
2018-06-02T01:09:38.839Z,42.72
2018-06-02T01:12:05.191Z,42.71
2018-06-02T01:14:31.562Z,42.80
2018-06-02T01:16:57.891Z,42.84
2018-06-02T01:19:24.253Z,42.97
2018-06-02T01:21:50.568Z,42.93
2018-06-02T01:24:16.932Z,43.02
2018-06-02T01:26:43.311Z,43.06
2018-06-02T01:29:09.665Z,43.17
2018-06-02T01:31:35.985Z,43.16
2018-06-02T01:34:02.306Z,43.21
2018-06-02T01:36:28.680Z,43.26
2018-06-02T01:38:55.017Z,43.37
2018-06-02T01:41:21.416Z,43.34
2018-06-02T01:43:47.795Z,43.39
2018-06-02T01:46:14.163Z,43.48
2018-06-02T01:48:40.636Z,43.47
2018-06-02T01:51:06.986Z,43.51
2018-06-02T01:53:33.326Z,43.51
2018-06-02T01:55:59.711Z,43.66
2018-06-02T01:58:26.130Z,43.70
2018-06-02T02:00:52.537Z,43.62
2018-06-02T02:03:18.936Z,43.68
2018-06-02T02:05:45.261Z,43.73
2018-06-02T02:08:11.600Z,43.81
2018-06-02T02:10:37.922Z,43.76
2018-06-02T02:13:04.288Z,43.74
2018-06-02T02:15:30.632Z,43.83
2018-06-02T02:17:57.000Z,43.68
2018-06-02T02:20:23.344Z,43.74
2018-06-02T02:22:49.669Z,43.84
2018-06-02T02:25:15.986Z,43.87
2018-06-02T02:27:42.351Z,43.88
2018-06-02T02:30:08.715Z,43.92
2018-06-02T02:32:35.036Z,43.90
2018-06-02T02:35:01.412Z,43.90
2018-06-02T02:37:27.746Z,43.87
2018-06-02T02:39:54.104Z,43.82
2018-06-02T02:42:20.433Z,43.93
2018-06-02T02:44:46.761Z,43.80
2018-06-02T02:47:13.092Z,43.78
2018-06-02T02:49:39.537Z,44.00
2018-06-02T02:52:05.853Z,43.98
2018-06-02T02:54:32.169Z,43.96
2018-06-02T02:56:58.495Z,43.95
2018-06-02T02:59:24.882Z,43.75
2018-06-02T03:01:51.254Z,43.64
2018-06-02T03:04:17.570Z,43.84
2018-06-02T03:06:43.964Z,43.75
2018-06-02T03:09:10.284Z,43.84
2018-06-02T03:11:36.684Z,43.50
2018-06-02T03:14:03.017Z,43.67
2018-06-02T03:16:29.367Z,43.63
2018-06-02T03:18:55.714Z,43.36
2018-06-02T03:21:22.060Z,43.28
2018-06-02T03:23:48.418Z,43.19
2018-06-02T03:26:14.740Z,43.17
2018-06-02T03:28:41.125Z,43.15
2018-06-02T03:31:07.478Z,43.15
2018-06-02T03:33:33.847Z,43.03
2018-06-02T03:36:00.187Z,42.90
2018-06-02T03:38:26.518Z,43.01
2018-06-02T03:40:52.851Z,42.72
2018-06-02T03:43:19.183Z,42.66
2018-06-02T03:45:45.553Z,42.45
2018-06-02T03:48:11.904Z,42.38
2018-06-02T03:50:38.241Z,42.27
2018-06-02T03:53:04.605Z,42.13
2018-06-02T03:55:30.976Z,42.01
2018-06-02T03:57:57.329Z,41.94
2018-06-02T04:00:23.707Z,41.94
2018-06-02T04:02:50.075Z,41.80
2018-06-02T04:05:16.469Z,41.76
2018-06-02T04:07:42.820Z,41.74
2018-06-02T04:10:09.156Z,41.67
2018-06-02T04:12:35.602Z,41.61
2018-06-02T04:15:01.962Z,41.51
2018-06-02T04:17:28.308Z,41.46
2018-06-02T04:19:54.652Z,41.42
2018-06-02T04:22:20.992Z,41.35
2018-06-02T04:24:47.354Z,41.22
2018-06-02T04:27:13.697Z,41.23
2018-06-02T04:29:40.017Z,41.08
2018-06-02T04:32:06.354Z,40.93
2018-06-02T04:34:32.720Z,41.06
2018-06-02T04:36:59.088Z,41.03
2018-06-02T04:39:25.418Z,40.90
2018-06-02T04:41:51.755Z,40.84
2018-06-02T04:44:18.074Z,40.77
2018-06-02T04:46:44.429Z,40.71
2018-06-02T04:49:10.775Z,40.74
2018-06-02T04:51:37.127Z,40.58
2018-06-02T04:54:03.467Z,40.50
2018-06-02T04:56:29.862Z,40.40
2018-06-02T04:58:56.188Z,40.33
2018-06-02T05:01:22.519Z,40.30
2018-06-02T05:03:48.888Z,40.32
2018-06-02T05:06:15.208Z,40.25
2018-06-02T05:08:41.580Z,40.17
2018-06-02T05:11:07.920Z,40.10
2018-06-02T05:13:34.321Z,39.98
2018-06-02T05:16:00.642Z,39.87
2018-06-02T05:18:26.997Z,39.78
2018-06-02T05:20:53.340Z,39.78
2018-06-02T05:23:19.732Z,39.75
2018-06-02T05:25:46.080Z,39.73
2018-06-02T05:28:12.436Z,39.75
2018-06-02T05:30:38.828Z,39.74
2018-06-02T05:33:05.210Z,39.63
2018-06-02T05:35:31.678Z,39.62
2018-06-02T05:37:58.008Z,39.48
2018-06-02T05:40:24.494Z,39.33
2018-06-02T05:42:50.860Z,39.23
2018-06-02T05:45:17.232Z,39.24
2018-06-02T05:47:43.559Z,39.27
2018-06-02T05:50:09.974Z,39.14
2018-06-02T05:52:36.313Z,39.05
2018-06-02T05:55:02.651Z,38.91
2018-06-02T05:57:28.985Z,38.85
2018-06-02T05:59:55.418Z,38.78
2018-06-02T06:02:21.769Z,38.78
2018-06-02T06:04:48.123Z,38.78
2018-06-02T06:07:14.457Z,38.54
2018-06-02T06:09:40.801Z,38.51
2018-06-02T06:12:07.160Z,38.61
2018-06-02T06:14:33.490Z,38.47
2018-06-02T06:16:59.855Z,38.40
2018-06-02T06:19:26.243Z,38.47
2018-06-02T06:21:52.612Z,38.36
2018-06-02T06:24:18.940Z,38.18
2018-06-02T06:26:45.253Z,38.20
2018-06-02T06:29:11.563Z,38.19
2018-06-02T06:31:37.899Z,38.11
2018-06-02T06:34:04.221Z,38.08
2018-06-02T06:36:30.564Z,38.00
2018-06-02T06:38:56.899Z,37.91
2018-06-02T06:41:23.280Z,37.98
2018-06-02T06:43:49.611Z,37.88
2018-06-02T06:46:15.952Z,37.83
2018-06-02T06:48:42.293Z,37.82
2018-06-02T06:51:08.664Z,37.83
2018-06-02T06:53:35.034Z,37.86
2018-06-02T06:56:01.427Z,37.82
2018-06-02T06:58:27.793Z,37.66
2018-06-02T07:00:54.142Z,37.62
2018-06-02T07:03:20.459Z,37.75
2018-06-02T07:05:46.776Z,37.68
2018-06-02T07:08:13.147Z,37.56
2018-06-02T07:10:39.490Z,37.66
2018-06-02T07:13:05.863Z,37.69
2018-06-02T07:15:32.199Z,37.72
2018-06-02T07:17:58.531Z,37.61
2018-06-02T07:20:24.869Z,37.40
2018-06-02T07:22:51.198Z,37.41
2018-06-02T07:25:17.545Z,37.53
2018-06-02T07:27:43.867Z,37.42
2018-06-02T07:30:10.233Z,37.42
2018-06-02T07:32:36.551Z,37.37
2018-06-02T07:35:02.895Z,37.30
2018-06-02T07:37:29.215Z,37.41
2018-06-02T07:39:55.533Z,37.34
2018-06-02T07:42:21.907Z,37.30
2018-06-02T07:44:48.244Z,37.46
2018-06-02T07:47:14.615Z,37.44
2018-06-02T07:49:40.947Z,37.33
2018-06-02T07:52:07.324Z,37.24
2018-06-02T07:54:33.697Z,37.23
2018-06-02T07:57:00.044Z,37.45
2018-06-02T07:59:26.372Z,37.41
2018-06-02T08:01:52.720Z,37.44
2018-06-02T08:04:19.109Z,37.37
2018-06-02T08:06:45.421Z,37.40
2018-06-02T08:09:11.754Z,37.42
2018-06-02T08:11:38.104Z,37.38
2018-06-02T08:14:04.468Z,37.36
2018-06-02T08:16:30.825Z,37.36
2018-06-02T08:18:57.155Z,37.43
2018-06-02T08:21:23.544Z,37.45
2018-06-02T08:23:49.874Z,37.47
2018-06-02T08:26:16.196Z,37.46
2018-06-02T08:28:42.536Z,37.43
2018-06-02T08:31:08.886Z,37.48
2018-06-02T08:33:35.317Z,37.43
2018-06-02T08:36:01.620Z,37.41
2018-06-02T08:38:27.952Z,37.42
2018-06-02T08:40:54.324Z,37.44
2018-06-02T08:43:20.665Z,37.40
2018-06-02T08:45:47.047Z,37.45
2018-06-02T08:48:13.392Z,37.50
2018-06-02T08:50:39.760Z,37.44
2018-06-02T08:53:06.154Z,37.46
2018-06-02T08:55:32.515Z,37.48
2018-06-02T08:57:58.895Z,37.46
2018-06-02T09:00:25.309Z,37.48
2018-06-02T09:02:51.601Z,37.51
2018-06-02T09:05:18.006Z,37.53
2018-06-02T09:07:44.312Z,37.50
2018-06-02T09:10:10.638Z,37.50
2018-06-02T09:12:36.953Z,37.50
2018-06-02T09:15:03.317Z,37.48
2018-06-02T09:17:29.659Z,37.47
2018-06-02T09:19:56.041Z,37.47
2018-06-02T09:22:22.373Z,37.50
2018-06-02T09:24:48.692Z,37.50
2018-06-02T09:27:15.044Z,37.50
2018-06-02T09:29:41.368Z,37.57
2018-06-02T09:32:07.735Z,37.50
2018-06-02T09:34:34.059Z,37.60
2018-06-02T09:37:00.428Z,37.54
2018-06-02T09:39:26.764Z,37.50
2018-06-02T09:41:53.204Z,37.83
2018-06-02T09:44:19.530Z,37.57
2018-06-02T09:46:45.855Z,37.62
2018-06-02T09:49:12.194Z,37.50
2018-06-02T09:51:38.521Z,37.27
2018-06-02T09:54:04.839Z,37.22
2018-06-02T09:56:31.193Z,37.57
2018-06-02T09:58:57.558Z,37.09
2018-06-02T10:01:23.888Z,36.88
2018-06-02T10:03:50.209Z,36.69
2018-06-02T10:06:16.541Z,36.65
2018-06-02T10:08:42.858Z,36.66
2018-06-02T10:11:09.200Z,36.69
2018-06-02T10:13:35.536Z,36.59
2018-06-02T10:16:01.858Z,36.51
2018-06-02T10:18:28.172Z,36.53
2018-06-02T10:20:54.501Z,36.58
2018-06-02T10:23:20.835Z,36.53
2018-06-02T10:25:47.195Z,36.66
2018-06-02T10:28:13.537Z,36.14
2018-06-02T10:30:39.892Z,36.25
2018-06-02T10:33:06.216Z,36.47
2018-06-02T10:35:32.545Z,36.31
2018-06-02T10:37:58.884Z,36.24
2018-06-02T10:40:25.210Z,35.98
2018-06-02T10:42:51.577Z,35.98
2018-06-02T10:45:17.908Z,35.79
2018-06-02T10:47:44.263Z,35.44
2018-06-02T10:50:10.592Z,35.15
2018-06-02T10:52:36.974Z,35.13
2018-06-02T10:55:03.323Z,34.85
2018-06-02T10:57:29.652Z,34.53
2018-06-02T10:59:56.061Z,34.29
2018-06-02T11:02:22.389Z,34.49
2018-06-02T11:04:48.714Z,34.77
2018-06-02T11:07:15.047Z,34.57
2018-06-02T11:09:41.381Z,33.84
2018-06-02T11:12:07.752Z,34.43
2018-06-02T11:14:34.077Z,34.31
2018-06-02T11:17:00.492Z,33.76
2018-06-02T11:19:26.906Z,33.70
2018-06-02T11:21:53.231Z,33.82
2018-06-02T11:24:19.555Z,33.81
2018-06-02T11:26:45.890Z,33.87
2018-06-02T11:29:12.218Z,33.87
2018-06-02T11:31:38.553Z,33.73
2018-06-02T11:34:04.899Z,33.82
2018-06-02T11:36:31.240Z,33.63
2018-06-02T11:38:57.602Z,33.58
2018-06-02T11:41:23.961Z,33.61
2018-06-02T11:43:50.341Z,33.63
2018-06-02T11:46:16.681Z,33.44
2018-06-02T11:48:43.061Z,33.41
2018-06-02T11:51:09.428Z,33.21
2018-06-02T11:53:35.750Z,33.29
2018-06-02T11:56:02.074Z,33.39
2018-06-02T11:58:28.396Z,33.18
2018-06-02T12:00:54.750Z,33.17
2018-06-02T12:03:21.083Z,32.88
2018-06-02T12:05:47.416Z,32.83
2018-06-02T12:08:13.770Z,32.87
2018-06-02T12:10:40.195Z,32.98
2018-06-02T12:13:06.572Z,32.83
2018-06-02T12:15:32.900Z,32.76
2018-06-02T12:17:59.232Z,32.50
2018-06-02T12:20:25.615Z,32.51
2018-06-02T12:22:51.959Z,32.55
2018-06-02T12:25:18.298Z,32.73
2018-06-02T12:27:44.661Z,32.66
2018-06-02T12:30:11.056Z,32.77
2018-06-02T12:32:37.409Z,32.79
2018-06-02T12:35:03.788Z,32.81
2018-06-02T12:37:30.150Z,32.66
2018-06-02T12:39:56.487Z,32.58
2018-06-02T12:42:22.852Z,32.70
2018-06-02T12:44:49.216Z,32.47
2018-06-02T12:47:15.608Z,32.55
2018-06-02T12:49:41.928Z,32.28
2018-06-02T12:52:08.312Z,32.07
2018-06-02T12:54:34.688Z,32.14
2018-06-02T12:57:01.100Z,32.24
2018-06-02T12:59:27.512Z,32.20
2018-06-02T13:01:53.940Z,32.18
2018-06-02T13:04:20.328Z,32.10
2018-06-02T13:06:46.709Z,32.22
2018-06-02T13:09:13.082Z,32.28
2018-06-02T13:11:39.452Z,32.22
2018-06-02T13:14:05.824Z,32.22
2018-06-02T13:16:32.239Z,32.25
2018-06-02T13:18:58.603Z,32.23
2018-06-02T13:21:24.924Z,32.28
2018-06-02T13:23:51.288Z,32.25
2018-06-02T13:26:17.635Z,32.29
2018-06-02T13:28:43.999Z,32.28
2018-06-02T13:31:10.387Z,32.34
2018-06-02T13:33:36.720Z,32.30
2018-06-02T13:36:03.090Z,32.42
2018-06-02T13:38:29.447Z,32.47
2018-06-02T13:40:55.814Z,32.55
2018-06-02T13:43:22.193Z,32.57
2018-06-02T13:45:48.531Z,32.70
2018-06-02T13:48:14.860Z,32.76
2018-06-02T13:50:41.255Z,32.82
2018-06-02T13:53:07.574Z,32.91
2018-06-02T13:55:33.906Z,32.88
2018-06-02T13:58:00.240Z,32.96
2018-06-02T14:00:26.606Z,33.15
2018-06-02T14:02:52.967Z,33.16
2018-06-02T14:05:19.288Z,33.28
2018-06-02T14:07:45.650Z,33.39
2018-06-02T14:10:11.984Z,33.52
2018-06-02T14:12:38.398Z,33.58
2018-06-02T14:15:04.748Z,33.65
2018-06-02T14:17:31.110Z,33.72
2018-06-02T14:19:57.532Z,33.76
2018-06-02T14:22:23.878Z,33.91
2018-06-02T14:24:50.240Z,34.00
2018-06-02T14:27:16.618Z,34.06
2018-06-02T14:29:42.944Z,34.12
2018-06-02T14:32:09.303Z,34.17
2018-06-02T14:34:35.653Z,34.01
2018-06-02T14:37:02.033Z,33.99
2018-06-02T14:39:28.373Z,34.12
2018-06-02T14:41:54.763Z,34.06
2018-06-02T14:44:21.085Z,34.16
2018-06-02T14:46:47.442Z,34.14
2018-06-02T14:49:13.781Z,34.12
2018-06-02T14:51:40.188Z,34.14
2018-06-02T14:54:06.578Z,34.12
2018-06-02T14:56:32.940Z,34.12
2018-06-02T14:58:59.306Z,34.28
2018-06-02T15:01:25.673Z,34.66
2018-06-02T15:03:52.067Z,34.95
2018-06-02T15:06:18.410Z,34.95
2018-06-02T15:08:44.806Z,35.18
2018-06-02T15:11:11.132Z,35.37
2018-06-02T15:13:37.520Z,35.63
2018-06-02T15:16:03.848Z,35.76
2018-06-02T15:18:30.254Z,35.95
2018-06-02T15:20:56.589Z,35.87
2018-06-02T15:23:22.936Z,35.78
2018-06-02T15:25:49.405Z,35.47
2018-06-02T15:28:15.774Z,35.58
2018-06-02T15:30:42.108Z,35.80
2018-06-02T15:33:09.033Z,36.07
2018-06-02T15:35:35.477Z,36.43
2018-06-02T15:38:01.969Z,36.79
2018-06-02T15:40:28.396Z,36.90
2018-06-02T15:42:54.738Z,37.03
2018-06-02T15:45:21.119Z,37.16
2018-06-02T15:47:47.456Z,37.37
2018-06-02T15:50:15.495Z,37.51
2018-06-02T15:52:41.905Z,37.40
2018-06-02T15:55:08.304Z,37.62
2018-06-02T15:57:35.885Z,37.76
2018-06-02T16:00:02.454Z,37.81
2018-06-02T16:02:28.864Z,37.91
2018-06-02T16:04:55.209Z,38.06
2018-06-02T16:07:21.540Z,38.24
2018-06-02T16:09:47.880Z,38.48
2018-06-02T16:12:16.254Z,38.64
2018-06-02T16:14:42.596Z,39.03
2018-06-02T16:17:08.919Z,39.14
2018-06-02T16:19:35.283Z,38.87
2018-06-02T16:22:01.658Z,38.88
2018-06-02T16:24:29.517Z,38.84
2018-06-02T16:26:55.885Z,39.02
2018-06-02T16:29:22.300Z,39.21
2018-06-02T16:31:48.785Z,39.39
2018-06-02T16:34:15.152Z,39.28
2018-06-02T16:36:41.510Z,39.33
2018-06-02T16:39:07.988Z,39.19
2018-06-02T16:41:34.465Z,39.23
2018-06-02T16:44:00.800Z,39.29
2018-06-02T16:46:27.210Z,39.43
2018-06-02T16:48:53.559Z,39.26
2018-06-02T16:51:19.993Z,39.32
2018-06-02T16:53:46.324Z,39.45
2018-06-02T16:56:14.166Z,39.68
2018-06-02T16:58:40.525Z,39.59
2018-06-02T17:01:06.873Z,39.62
2018-06-02T17:03:33.232Z,39.62
2018-06-02T17:06:00.962Z,39.81
2018-06-02T17:08:27.305Z,39.86
2018-06-02T17:10:53.666Z,40.02
2018-06-02T17:13:20.082Z,40.10
2018-06-02T17:15:47.402Z,40.16
2018-06-02T17:18:13.918Z,40.31
2018-06-02T17:20:40.312Z,40.36
2018-06-02T17:23:06.651Z,40.39
2018-06-02T17:25:33.017Z,40.56
2018-06-02T17:27:59.336Z,40.56
2018-06-02T17:30:25.718Z,40.65
2018-06-02T17:32:52.085Z,40.66
2018-06-02T17:35:18.411Z,40.71
2018-06-02T17:37:44.743Z,40.77
2018-06-02T17:40:11.153Z,40.95
2018-06-02T17:42:37.496Z,40.97
2018-06-02T17:45:05.388Z,41.09
2018-06-02T17:47:31.799Z,41.04
2018-06-02T17:49:58.216Z,41.09
2018-06-02T17:52:24.560Z,41.20
2018-06-02T17:54:50.918Z,41.33
2018-06-02T17:57:17.291Z,41.48
2018-06-02T17:59:43.731Z,41.39
2018-06-02T18:02:10.104Z,41.54
2018-06-02T18:04:36.585Z,41.80
2018-06-02T18:07:02.981Z,41.74
2018-06-02T18:09:29.341Z,41.85
2018-06-02T18:11:55.764Z,41.85
2018-06-02T18:14:22.221Z,42.03
2018-06-02T18:16:48.624Z,42.20
2018-06-02T18:19:15.658Z,42.52
2018-06-02T18:21:42.137Z,42.45
2018-06-02T18:24:08.497Z,42.40
2018-06-02T18:26:34.919Z,42.56
2018-06-02T18:29:01.268Z,42.92
2018-06-02T18:31:27.672Z,42.94
2018-06-02T18:33:54.143Z,42.98
2018-06-02T18:36:20.526Z,43.04
2018-06-02T18:38:46.915Z,43.17
2018-06-02T18:41:13.285Z,43.14
2018-06-02T18:43:39.703Z,43.26
2018-06-02T18:46:06.197Z,43.42
2018-06-02T18:48:32.619Z,43.52
2018-06-02T18:50:59.075Z,43.62
2018-06-02T18:53:25.407Z,43.74
2018-06-02T18:55:51.784Z,43.98
2018-06-02T18:58:20.056Z,43.92
2018-06-02T19:00:46.428Z,43.94
2018-06-02T19:03:12.865Z,44.03
2018-06-02T19:05:39.229Z,44.15
2018-06-02T19:08:05.556Z,44.42
2018-06-02T19:10:32.088Z,44.26
2018-06-02T19:12:58.476Z,44.50
2018-06-02T19:15:24.872Z,44.61
2018-06-02T19:17:51.219Z,44.48
2018-06-02T19:20:17.580Z,44.65
2018-06-02T19:22:45.240Z,44.68
2018-06-02T19:25:11.557Z,44.69
2018-06-02T19:27:37.918Z,44.79
2018-06-02T19:30:04.296Z,45.01
2018-06-02T19:32:30.687Z,44.92
2018-06-02T19:34:57.089Z,44.94
2018-06-02T19:37:23.486Z,45.08
2018-06-02T19:39:49.808Z,45.23
2018-06-02T19:42:16.163Z,45.09
2018-06-02T19:44:42.495Z,45.18
2018-06-02T19:47:08.880Z,45.39
2018-06-02T19:49:35.204Z,45.40
2018-06-02T19:52:01.628Z,45.38
2018-06-02T19:54:28.035Z,45.58
2018-06-02T19:56:54.383Z,45.60
2018-06-02T19:59:20.763Z,45.63
2018-06-02T20:01:47.088Z,45.56
2018-06-02T20:04:13.607Z,45.71
2018-06-02T20:06:39.983Z,45.78
2018-06-02T20:09:06.373Z,45.84
2018-06-02T20:11:32.749Z,45.85
2018-06-02T20:13:59.246Z,45.90
2018-06-02T20:16:25.710Z,45.89
2018-06-02T20:18:52.166Z,46.12
2018-06-02T20:21:18.483Z,46.06
2018-06-02T20:23:44.849Z,46.12
2018-06-02T20:26:11.214Z,46.22
2018-06-02T20:28:37.589Z,46.35
2018-06-02T20:31:05.104Z,46.41
2018-06-02T20:33:31.568Z,46.35
2018-06-02T20:35:57.927Z,46.45
2018-06-02T20:38:24.359Z,46.51
2018-06-02T20:40:50.699Z,46.62
2018-06-02T20:43:17.164Z,46.92
2018-06-02T20:45:43.615Z,46.80
2018-06-02T20:48:09.992Z,46.89
2018-06-02T20:50:36.401Z,46.86
2018-06-02T20:53:02.724Z,47.12
2018-06-02T20:55:29.110Z,47.38
2018-06-02T20:57:55.437Z,47.05
2018-06-02T21:00:21.796Z,47.55
2018-06-02T21:02:48.124Z,47.65
2018-06-02T21:05:14.512Z,47.38
2018-06-02T21:07:40.886Z,47.73
2018-06-02T21:10:07.269Z,47.42
2018-06-02T21:12:33.630Z,47.57
2018-06-02T21:14:59.987Z,47.92
2018-06-02T21:17:26.371Z,47.83
2018-06-02T21:19:52.717Z,47.72
2018-06-02T21:22:19.227Z,47.74
2018-06-02T21:24:45.608Z,48.01
2018-06-02T21:27:11.976Z,47.91
2018-06-02T21:29:38.408Z,47.86
2018-06-02T21:32:04.788Z,47.81
2018-06-02T21:34:31.203Z,47.78
2018-06-02T21:36:57.670Z,47.89
2018-06-02T21:41:56.773Z,47.91
2018-06-02T21:44:23.134Z,47.86
2018-06-02T21:46:49.560Z,47.89
2018-06-02T21:49:17.120Z,47.89
2018-06-02T21:51:43.510Z,47.78
2018-06-02T21:54:09.947Z,47.73
2018-06-02T21:56:36.327Z,47.79
2018-06-02T21:59:02.690Z,47.69
2018-06-02T22:01:29.118Z,47.73
2018-06-02T22:03:55.575Z,47.73
2018-06-02T22:06:21.959Z,47.71
2018-06-02T22:08:48.338Z,47.70
2018-06-02T22:11:14.746Z,47.60
2018-06-02T22:13:41.107Z,47.63
2018-06-02T22:16:07.513Z,47.67
2018-06-02T22:18:33.894Z,47.70
2018-06-02T22:21:00.298Z,47.63
2018-06-02T22:23:26.684Z,47.64
2018-06-02T22:25:53.881Z,47.66
2018-06-02T22:28:20.269Z,47.66
2018-06-02T22:30:46.732Z,47.61
2018-06-02T22:33:13.242Z,47.62
2018-06-02T22:35:39.708Z,47.60
2018-06-02T22:38:06.127Z,47.60
2018-06-02T22:40:32.626Z,47.59
2018-06-02T22:42:59.036Z,47.66
2018-06-02T22:45:25.496Z,47.63
2018-06-02T22:47:53.517Z,47.60
2018-06-02T22:50:19.911Z,47.55
2018-06-02T22:52:46.534Z,47.59
2018-06-02T22:55:12.943Z,47.53
2018-06-02T22:57:39.303Z,47.63
2018-06-02T23:00:05.735Z,47.64
2018-06-02T23:02:32.239Z,47.52
2018-06-02T23:04:58.601Z,47.64
2018-06-02T23:07:26.918Z,47.58
2018-06-02T23:09:53.284Z,47.55
2018-06-02T23:12:20.748Z,47.60
2018-06-02T23:14:47.191Z,47.54
2018-06-02T23:17:13.555Z,47.52
2018-06-02T23:19:39.917Z,47.45
2018-06-02T23:22:06.315Z,47.45
2018-06-02T23:24:32.848Z,47.50
2018-06-02T23:26:59.270Z,47.47
2018-06-02T23:29:25.659Z,47.47
2018-06-02T23:31:52.228Z,47.48
2018-06-02T23:34:18.648Z,47.47
2018-06-02T23:36:45.398Z,47.44
2018-06-02T23:39:11.900Z,47.55
2018-06-02T23:41:38.328Z,47.53
2018-06-02T23:44:04.749Z,47.48
2018-06-02T23:46:31.301Z,47.45
2018-06-02T23:48:57.863Z,47.47
2018-06-02T23:51:24.233Z,47.42
2018-06-02T23:53:50.595Z,47.45
2018-06-02T23:56:16.970Z,47.50
2018-06-02T23:58:43.374Z,47.47
